createdAt,value
2024-02-29T00:01:42.074Z,1.88
2024-02-29T00:04:36.976Z,2.03
2024-02-29T00:07:31.380Z,1.38
2024-02-29T00:10:26.549Z,1.52
2024-02-29T00:13:20.900Z,1.55
2024-02-29T00:16:15.931Z,1.40
2024-02-29T00:19:10.358Z,1.75
2024-02-29T00:22:05.394Z,1.65
2024-02-29T00:24:59.974Z,1.52
2024-02-29T00:27:54.568Z,1.48
2024-02-29T00:30:49.039Z,1.40
2024-02-29T00:33:43.898Z,1.58
2024-02-29T00:36:38.267Z,1.48
2024-02-29T00:39:32.754Z,1.25
2024-02-29T00:42:27.090Z,1.65
2024-02-29T00:45:21.503Z,2.10
2024-02-29T00:48:15.802Z,1.30
2024-02-29T00:51:10.143Z,1.73
2024-02-29T00:54:04.500Z,1.30
2024-02-29T00:56:58.938Z,1.95
2024-02-29T00:59:53.286Z,1.45
2024-02-29T01:02:47.918Z,1.58
2024-02-29T01:05:42.329Z,1.20
2024-02-29T01:08:36.730Z,1.40
2024-02-29T01:11:31.183Z,1.33
2024-02-29T01:14:25.635Z,1.45
2024-02-29T01:17:20.005Z,1.63
2024-02-29T01:20:14.803Z,1.42
2024-02-29T01:23:09.204Z,1.58
2024-02-29T01:26:03.549Z,1.33
2024-02-29T01:28:58.598Z,1.40
2024-02-29T01:31:53.043Z,1.65
2024-02-29T01:34:48.841Z,1.63
2024-02-29T01:37:44.035Z,1.70
2024-02-29T01:40:38.427Z,1.50
2024-02-29T01:43:32.952Z,1.50
2024-02-29T01:46:27.534Z,1.83
2024-02-29T01:49:23.088Z,1.42
2024-02-29T01:52:19.187Z,1.73
2024-02-29T01:55:14.597Z,1.47
2024-02-29T01:58:10.428Z,1.40
2024-02-29T02:01:06.484Z,1.90
2024-02-29T02:04:01.277Z,1.38
2024-02-29T02:06:57.513Z,1.40
2024-02-29T02:09:52.177Z,1.65
2024-02-29T02:12:48.803Z,2.22
2024-02-29T02:15:43.766Z,1.50
2024-02-29T02:18:38.598Z,1.50
2024-02-29T02:21:32.932Z,1.45
2024-02-29T02:24:28.261Z,1.45
2024-02-29T02:27:23.169Z,1.33
2024-02-29T02:30:17.672Z,1.30
2024-02-29T02:33:14.690Z,2.33
2024-02-29T02:36:09.212Z,2.13
2024-02-29T02:39:04.419Z,2.10
2024-02-29T02:41:58.913Z,1.30
2024-02-29T02:44:53.485Z,1.75
2024-02-29T02:47:47.942Z,1.40
2024-02-29T02:50:42.355Z,1.30
2024-02-29T02:53:37.623Z,1.60
2024-02-29T02:56:31.981Z,1.67
2024-02-29T02:59:26.823Z,1.20
2024-02-29T03:02:21.216Z,1.63
2024-02-29T03:05:15.731Z,1.70
2024-02-29T03:08:10.310Z,1.52
2024-02-29T03:11:04.840Z,1.48
2024-02-29T03:14:00.181Z,1.50
2024-02-29T03:16:54.743Z,1.15
2024-02-29T03:19:49.178Z,1.65
2024-02-29T03:22:44.036Z,1.60
2024-02-29T03:25:38.348Z,1.30
2024-02-29T03:28:32.841Z,2.05
2024-02-29T03:31:27.344Z,1.60
2024-02-29T03:34:21.933Z,1.83
2024-02-29T03:37:16.480Z,1.42
2024-02-29T03:40:11.741Z,1.60
2024-02-29T03:43:06.364Z,1.92
2024-02-29T03:46:01.512Z,2.10
2024-02-29T03:48:55.994Z,1.80
2024-02-29T03:51:50.379Z,1.60
2024-02-29T03:54:44.846Z,1.30
2024-02-29T03:57:39.306Z,1.70
2024-02-29T04:00:33.754Z,1.52
2024-02-29T04:03:28.100Z,1.75
2024-02-29T04:06:22.435Z,1.20
2024-02-29T04:09:17.345Z,1.55
2024-02-29T04:12:11.800Z,1.30
2024-02-29T04:15:06.569Z,1.80
2024-02-29T04:18:01.209Z,1.55
2024-02-29T04:20:55.743Z,1.33
2024-02-29T04:23:50.084Z,1.50
2024-02-29T04:26:44.679Z,1.40
2024-02-29T04:29:39.464Z,1.60
2024-02-29T04:32:33.815Z,1.55
2024-02-29T04:35:28.248Z,1.63
2024-02-29T04:38:22.571Z,1.45
2024-02-29T04:41:17.166Z,1.45
2024-02-29T04:44:11.814Z,1.80
2024-02-29T04:47:06.746Z,1.45
2024-02-29T04:50:01.378Z,1.75
2024-02-29T04:52:55.751Z,1.83
2024-02-29T04:55:50.133Z,1.30
2024-02-29T04:58:44.476Z,1.65
2024-02-29T05:01:39.046Z,1.40
2024-02-29T05:04:33.802Z,1.52
2024-02-29T05:07:28.269Z,1.50
2024-02-29T05:10:23.946Z,1.60
2024-02-29T05:13:18.531Z,1.65
2024-02-29T05:16:17.464Z,1.17
2024-02-29T05:19:12.972Z,1.50
2024-02-29T05:22:07.548Z,1.75
2024-02-29T05:25:02.261Z,1.83
2024-02-29T05:27:57.056Z,1.92
2024-02-29T05:30:51.905Z,1.50
2024-02-29T05:33:46.251Z,1.50
2024-02-29T05:36:40.647Z,1.80
2024-02-29T05:39:37.460Z,1.67
2024-02-29T05:42:31.901Z,1.80
2024-02-29T05:45:26.333Z,1.40
2024-02-29T05:48:20.950Z,1.42
2024-02-29T05:51:15.756Z,2.00
2024-02-29T05:54:10.133Z,1.40
2024-02-29T05:57:06.225Z,1.30
2024-02-29T06:00:06.414Z,1.88
2024-02-29T06:03:00.745Z,1.75
2024-02-29T06:05:55.162Z,1.83
2024-02-29T06:08:49.556Z,1.63
2024-02-29T06:11:44.532Z,1.38
2024-02-29T06:14:39.309Z,2.03
2024-02-29T06:17:33.916Z,2.17
2024-02-29T06:20:28.305Z,2.00
2024-02-29T06:23:22.642Z,1.73
2024-02-29T06:26:17.545Z,1.60
2024-02-29T06:29:11.911Z,2.17
2024-02-29T06:32:06.593Z,1.60
2024-02-29T06:35:01.291Z,1.40
2024-02-29T06:37:55.937Z,2.33
2024-02-29T06:40:50.822Z,1.83
2024-02-29T06:43:45.322Z,1.98
2024-02-29T06:46:39.935Z,1.58
2024-02-29T06:49:34.373Z,1.85
2024-02-29T06:52:29.344Z,2.00
2024-02-29T06:55:23.733Z,1.75
2024-02-29T06:58:18.280Z,2.25
2024-02-29T07:01:15.376Z,2.20
2024-02-29T07:07:05.994Z,1.80
2024-02-29T07:10:00.420Z,2.53
2024-02-29T07:12:54.883Z,1.80
2024-02-29T07:15:49.441Z,1.92
2024-02-29T07:18:44.240Z,2.10
2024-02-29T07:21:38.900Z,1.80
2024-02-29T07:24:33.728Z,2.28
2024-02-29T07:27:28.127Z,2.55
2024-02-29T07:30:23.276Z,2.20
2024-02-29T07:33:17.744Z,2.30
2024-02-29T07:36:12.839Z,1.67
2024-02-29T07:39:09.191Z,2.03
2024-02-29T07:42:03.552Z,1.80
2024-02-29T07:44:57.926Z,2.08
2024-02-29T07:47:52.538Z,1.70
2024-02-29T07:50:47.000Z,2.00
2024-02-29T07:53:42.489Z,1.88
2024-02-29T07:56:37.045Z,2.10
2024-02-29T07:59:31.394Z,1.77
2024-02-29T08:02:25.758Z,2.17
2024-02-29T08:05:20.216Z,2.33
2024-02-29T08:08:14.702Z,1.67
2024-02-29T08:11:10.621Z,1.80
2024-02-29T08:14:05.077Z,2.03
2024-02-29T08:16:59.492Z,1.90
2024-02-29T08:19:53.810Z,1.80
2024-02-29T08:22:48.219Z,1.70
2024-02-29T08:25:42.669Z,1.80
2024-02-29T08:28:37.956Z,1.70
2024-02-29T08:31:32.421Z,1.88
2024-02-29T08:34:26.884Z,1.40
2024-02-29T08:37:21.313Z,1.95
2024-02-29T08:40:16.222Z,1.83
2024-02-29T08:43:10.720Z,1.65
2024-02-29T08:46:06.440Z,1.65
2024-02-29T08:49:03.325Z,1.58
2024-02-29T08:51:58.333Z,1.40
2024-02-29T08:54:52.795Z,1.70
2024-02-29T08:57:47.131Z,1.63
2024-02-29T09:00:41.552Z,1.75
2024-02-29T09:03:36.050Z,1.70
2024-02-29T09:06:36.217Z,1.85
2024-02-29T09:09:35.671Z,1.30
2024-02-29T09:12:30.045Z,1.45
2024-02-29T09:15:24.588Z,2.08
2024-02-29T09:18:18.946Z,1.23
2024-02-29T09:21:13.261Z,1.35
2024-02-29T09:24:08.057Z,1.33
2024-02-29T09:27:02.546Z,1.50
2024-02-29T09:29:58.703Z,1.30
2024-02-29T09:32:54.681Z,1.20
2024-02-29T09:35:49.029Z,1.42
2024-02-29T09:38:43.819Z,1.35
2024-02-29T09:44:36.081Z,1.63
2024-02-29T09:47:32.272Z,1.40
2024-02-29T09:50:26.791Z,1.77
2024-02-29T09:53:22.301Z,1.40
2024-02-29T09:56:17.350Z,1.58
2024-02-29T09:59:24.040Z,1.30
2024-02-29T10:02:18.510Z,1.87
2024-02-29T10:05:13.452Z,1.38
2024-02-29T10:08:08.139Z,1.40
2024-02-29T10:11:04.255Z,1.38
2024-02-29T10:13:59.762Z,1.45
2024-02-29T10:16:57.643Z,1.38
2024-02-29T10:19:56.679Z,1.30
2024-02-29T10:22:57.188Z,1.40
2024-02-29T10:25:53.588Z,2.50
2024-02-29T10:28:47.983Z,1.70
2024-02-29T10:31:42.305Z,1.60
2024-02-29T10:34:38.994Z,1.20
2024-02-29T10:37:34.216Z,1.33
2024-02-29T10:40:28.785Z,1.20
2024-02-29T10:43:24.408Z,1.27
2024-02-29T10:46:22.902Z,1.40
2024-02-29T10:49:32.364Z,1.17
2024-02-29T10:52:36.408Z,0.98
2024-02-29T10:55:37.299Z,1.25
2024-02-29T10:58:42.370Z,1.08
2024-02-29T11:01:39.045Z,0.90
2024-02-29T11:04:34.008Z,0.88
2024-02-29T11:07:29.223Z,1.15
2024-02-29T11:10:24.314Z,1.30
2024-02-29T11:13:22.958Z,1.00
2024-02-29T11:16:19.858Z,0.98
2024-02-29T11:19:20.399Z,1.00
2024-02-29T11:22:15.837Z,1.30
2024-02-29T11:25:13.017Z,1.10
2024-02-29T11:28:07.769Z,1.30
2024-02-29T11:31:16.946Z,0.90
2024-02-29T11:34:11.885Z,1.20
2024-02-29T11:37:09.622Z,0.95
2024-02-29T11:40:18.291Z,1.30
2024-02-29T11:43:12.793Z,1.05
2024-02-29T11:46:12.047Z,1.30
2024-02-29T11:49:06.447Z,1.08
2024-02-29T11:52:01.301Z,1.27
2024-02-29T11:54:56.422Z,1.20
2024-02-29T11:57:50.951Z,0.90
2024-02-29T12:00:45.382Z,1.10
2024-02-29T12:03:39.915Z,1.15
2024-02-29T12:06:35.277Z,0.95
2024-02-29T12:09:29.658Z,0.82
2024-02-29T12:12:24.244Z,1.00
2024-02-29T12:15:19.655Z,1.23
2024-02-29T12:18:14.082Z,1.27
2024-02-29T12:21:09.674Z,1.15
2024-02-29T12:24:04.876Z,1.00
2024-02-29T12:26:59.230Z,0.85
2024-02-29T12:29:55.130Z,1.20
2024-02-29T12:32:53.937Z,0.73
2024-02-29T12:35:48.332Z,0.82
2024-02-29T12:38:46.766Z,1.10
2024-02-29T12:41:41.201Z,1.25
2024-02-29T12:44:36.195Z,1.45
2024-02-29T12:47:31.168Z,1.30
2024-02-29T12:50:25.625Z,1.20
2024-02-29T12:53:20.573Z,1.10
2024-02-29T12:56:15.809Z,1.00
2024-02-29T12:59:10.255Z,1.20
2024-02-29T13:02:05.249Z,1.30
2024-02-29T13:04:59.661Z,1.20
2024-02-29T13:07:54.800Z,0.98
2024-02-29T13:10:49.198Z,1.13
2024-02-29T13:13:43.631Z,0.85
2024-02-29T13:16:37.994Z,1.02
2024-02-29T13:19:32.410Z,1.75
2024-02-29T13:22:26.851Z,1.27
2024-02-29T13:25:21.461Z,1.08
2024-02-29T13:28:16.072Z,0.73
2024-02-29T13:31:12.957Z,1.30
2024-02-29T13:34:07.324Z,0.90
2024-02-29T13:37:01.781Z,0.80
2024-02-29T13:39:56.228Z,1.15
2024-02-29T13:42:51.022Z,1.10
2024-02-29T13:45:45.433Z,0.80
2024-02-29T13:48:40.388Z,1.00
2024-02-29T13:51:34.756Z,1.13
2024-02-29T13:54:29.130Z,0.85
2024-02-29T13:57:23.446Z,1.10
2024-02-29T14:00:18.272Z,1.02
2024-02-29T14:03:13.810Z,1.13
2024-02-29T14:06:08.356Z,1.10
2024-02-29T14:09:02.710Z,1.00
2024-02-29T14:11:57.178Z,0.82
2024-02-29T14:14:51.456Z,0.90
2024-02-29T14:17:46.108Z,0.80
2024-02-29T14:20:40.509Z,0.85
2024-02-29T14:23:35.045Z,0.88
2024-02-29T14:26:29.429Z,0.90
2024-02-29T14:29:23.782Z,1.02
2024-02-29T14:32:18.661Z,0.82
2024-02-29T14:35:13.231Z,1.15
2024-02-29T14:38:07.933Z,0.70
2024-02-29T14:41:02.332Z,0.73
2024-02-29T14:43:58.132Z,0.80
2024-02-29T14:46:53.384Z,0.75
2024-02-29T14:49:47.819Z,0.80
2024-02-29T14:52:43.129Z,0.70
2024-02-29T14:55:37.525Z,0.82
2024-02-29T14:58:32.177Z,0.90
2024-02-29T15:01:27.642Z,1.02
2024-02-29T15:04:22.348Z,1.10
2024-02-29T15:07:17.034Z,0.77
2024-02-29T15:10:14.785Z,0.63
2024-02-29T15:13:09.244Z,1.00
2024-02-29T15:16:03.840Z,0.90
2024-02-29T15:18:58.981Z,1.00
2024-02-29T15:21:53.519Z,0.73
2024-02-29T15:24:48.978Z,0.95
2024-02-29T15:27:44.791Z,0.80
2024-02-29T15:30:39.395Z,0.88
2024-02-29T15:33:33.931Z,0.88
2024-02-29T15:36:28.483Z,0.90
2024-02-29T15:39:24.041Z,0.65
2024-02-29T15:42:18.359Z,0.82
2024-02-29T15:45:15.077Z,0.73
2024-02-29T15:48:09.981Z,0.80
2024-02-29T15:51:04.570Z,0.80
2024-02-29T15:53:59.024Z,0.73
2024-02-29T15:56:53.446Z,1.05
2024-02-29T15:59:47.803Z,0.90
2024-02-29T16:02:42.709Z,0.70
2024-02-29T16:05:37.102Z,0.70
2024-02-29T16:08:31.686Z,0.70
2024-02-29T16:11:26.317Z,0.80
2024-02-29T16:14:20.952Z,0.70
2024-02-29T16:17:15.272Z,0.90
2024-02-29T16:20:10.461Z,0.60
2024-02-29T16:23:05.340Z,0.63
2024-02-29T16:25:59.714Z,0.60
2024-02-29T16:28:56.420Z,0.80
2024-02-29T16:31:51.125Z,0.82
2024-02-29T16:34:45.444Z,0.55
2024-02-29T16:37:40.252Z,0.80
2024-02-29T16:40:38.400Z,0.60
2024-02-29T16:43:32.962Z,0.70
2024-02-29T16:46:27.536Z,0.57
2024-02-29T16:49:22.067Z,0.50
2024-02-29T16:52:16.613Z,0.93
2024-02-29T16:55:11.239Z,0.88
2024-02-29T16:58:05.961Z,0.80
2024-02-29T17:01:00.566Z,0.60
2024-02-29T17:03:55.030Z,0.85
2024-02-29T17:06:49.872Z,0.70
2024-02-29T17:09:44.293Z,0.60
2024-02-29T17:12:39.614Z,0.50
2024-02-29T17:15:36.571Z,0.98
2024-02-29T17:18:32.561Z,0.77
2024-02-29T17:21:30.514Z,0.88
2024-02-29T17:24:24.974Z,1.02
2024-02-29T17:27:19.339Z,0.50
2024-02-29T17:30:14.326Z,0.57
2024-02-29T17:33:08.661Z,0.70
2024-02-29T17:36:03.066Z,0.50
2024-02-29T17:38:57.344Z,0.70
2024-02-29T17:41:51.690Z,0.65
2024-02-29T17:44:46.020Z,0.68
2024-02-29T17:47:42.871Z,0.80
2024-02-29T17:50:37.306Z,0.90
2024-02-29T17:53:31.790Z,0.95
2024-02-29T17:56:26.108Z,0.63
2024-02-29T17:59:20.875Z,0.63
2024-02-29T18:02:15.255Z,0.80
2024-02-29T18:05:10.389Z,0.60
2024-02-29T18:08:07.169Z,0.63
2024-02-29T18:11:02.111Z,0.80
2024-02-29T18:13:56.423Z,0.60
2024-02-29T18:16:51.012Z,0.70
2024-02-29T18:19:45.324Z,0.60
2024-02-29T18:22:39.708Z,0.73
2024-02-29T18:25:34.157Z,1.30
2024-02-29T18:28:28.820Z,1.90
2024-02-29T18:31:23.252Z,1.35
2024-02-29T18:34:17.676Z,1.33
2024-02-29T18:37:13.210Z,1.00
2024-02-29T18:40:11.150Z,0.90
2024-02-29T18:43:06.913Z,0.85
2024-02-29T18:46:05.922Z,0.73
2024-02-29T18:49:01.271Z,0.85
2024-02-29T18:51:56.418Z,0.90
2024-02-29T18:54:50.824Z,1.08
2024-02-29T18:57:46.692Z,0.70
2024-02-29T19:00:42.279Z,1.20
2024-02-29T19:03:36.835Z,1.40
2024-02-29T19:06:31.113Z,1.35
2024-02-29T19:09:25.638Z,0.93
2024-02-29T19:12:19.960Z,0.90
2024-02-29T19:15:14.438Z,0.90
2024-02-29T19:18:09.490Z,0.70
2024-02-29T19:21:04.709Z,0.60
2024-02-29T19:23:59.003Z,0.90
2024-02-29T19:26:53.479Z,0.85
2024-02-29T19:29:52.284Z,0.70
2024-02-29T19:32:46.875Z,0.63
2024-02-29T19:35:41.412Z,0.75
2024-02-29T19:38:35.810Z,0.90
2024-02-29T19:41:30.231Z,0.60
2024-02-29T19:44:24.995Z,0.95
2024-02-29T19:47:23.132Z,0.80
2024-02-29T19:50:22.773Z,1.00
2024-02-29T19:53:17.111Z,1.40
2024-02-29T19:56:11.978Z,1.05
2024-02-29T19:59:06.314Z,1.10
2024-02-29T20:02:00.701Z,0.90
2024-02-29T20:04:55.042Z,0.70
2024-02-29T20:07:49.717Z,0.90
2024-02-29T20:10:44.247Z,0.82
2024-02-29T20:13:38.699Z,0.70
2024-02-29T20:16:33.074Z,0.60
2024-02-29T20:19:28.651Z,0.60
2024-02-29T20:22:24.921Z,0.75
2024-02-29T20:25:19.464Z,0.73
2024-02-29T20:28:13.863Z,0.70
2024-02-29T20:31:09.593Z,1.00
2024-02-29T20:34:04.275Z,0.80
2024-02-29T20:36:59.705Z,0.40
2024-02-29T20:39:55.497Z,0.70
2024-02-29T20:42:50.412Z,0.75
2024-02-29T20:45:44.947Z,0.80
2024-02-29T20:48:40.285Z,1.88
2024-02-29T20:51:34.705Z,0.88
2024-02-29T20:54:30.711Z,0.70
2024-02-29T20:57:28.370Z,0.77
2024-02-29T21:00:23.030Z,1.00
2024-02-29T21:03:17.664Z,0.85
2024-02-29T21:06:12.436Z,0.70
2024-02-29T21:09:07.053Z,0.70
2024-02-29T21:12:01.921Z,1.00
2024-02-29T21:14:56.829Z,1.00
2024-02-29T21:17:52.642Z,0.90
2024-02-29T21:20:47.152Z,0.95
2024-02-29T21:23:41.866Z,0.80
2024-02-29T21:26:36.294Z,0.93
2024-02-29T21:29:31.831Z,0.90
2024-02-29T21:32:26.554Z,0.90
2024-02-29T21:35:22.670Z,1.20
2024-02-29T21:38:17.315Z,1.23
2024-02-29T21:41:12.936Z,1.10
2024-02-29T21:44:07.858Z,0.93
2024-02-29T21:47:02.483Z,1.08
2024-02-29T21:49:57.131Z,0.60
2024-02-29T21:52:52.089Z,0.98
2024-02-29T21:55:46.886Z,0.70
2024-02-29T21:58:45.838Z,0.90
2024-02-29T22:01:41.072Z,0.60
2024-02-29T22:04:35.905Z,0.60
2024-02-29T22:07:30.467Z,0.65
2024-02-29T22:10:26.910Z,0.63
2024-02-29T22:13:21.572Z,0.77
2024-02-29T22:16:16.071Z,0.80
2024-02-29T22:19:13.884Z,0.65
2024-02-29T22:22:09.073Z,1.30
2024-02-29T22:25:03.802Z,1.40
2024-02-29T22:27:58.431Z,0.63
2024-02-29T22:30:53.503Z,0.88
2024-02-29T22:33:48.056Z,1.00
2024-02-29T22:36:42.429Z,0.80
2024-02-29T22:39:37.117Z,0.70
2024-02-29T22:42:31.525Z,0.90
2024-02-29T22:45:26.052Z,1.00
2024-02-29T22:48:21.339Z,0.93
2024-02-29T22:51:15.735Z,0.88
2024-02-29T22:54:10.068Z,0.57
2024-02-29T22:57:04.539Z,0.80
2024-02-29T22:59:59.200Z,0.85
2024-02-29T23:02:53.583Z,0.70
2024-02-29T23:05:47.926Z,0.63
2024-02-29T23:08:42.736Z,0.85
2024-02-29T23:11:37.241Z,1.00
2024-02-29T23:14:31.706Z,0.70
2024-02-29T23:17:26.082Z,0.88
2024-02-29T23:20:20.928Z,0.70
2024-02-29T23:23:15.325Z,0.90
2024-02-29T23:26:09.831Z,1.05
2024-02-29T23:29:04.233Z,0.95
2024-02-29T23:31:59.099Z,1.05
2024-02-29T23:34:53.621Z,0.80
2024-02-29T23:37:48.051Z,0.80
2024-02-29T23:40:42.474Z,0.95
2024-02-29T23:43:36.857Z,1.00
2024-02-29T23:46:31.389Z,0.90
2024-02-29T23:49:25.989Z,1.08
2024-02-29T23:52:20.475Z,0.80
2024-02-29T23:55:14.898Z,0.85
2024-02-29T23:58:09.273Z,1.10
